Time;durP1;ratioP1;P1;durP2;ratioP2;P2;SDS_P1;SDS_P2;PMS_P1;PMS_P2;Temp;Humidity;BMP_temperature;BMP_pressure;BME280_temperature;BME280_humidity;BME280_pressure;Samples;Min_cycle;Max_cycle;Signal;HPM_P1;HPM_P2
2023/10/29 00:01:43;;;;;;;2.13;1.13;;;13.20;99.90;;;;;;4128307;28;20042;-66
2023/10/29 00:03:43;;;;;;;5.32;1.75;;;13.30;99.90;;;;;;4131147;28;20050;-66
2023/10/29 00:05:44;;;;;;;2.78;1.25;;;13.20;99.90;;;;;;4119988;28;20050;-66
2023/10/29 00:07:44;;;;;;;2.38;1.27;;;13.30;99.90;;;;;;4126605;28;20050;-66
2023/10/29 00:09:45;;;;;;;3.65;1.48;;;13.30;99.90;;;;;;4126500;28;20042;-66
2023/10/29 00:11:46;;;;;;;2.25;1.27;;;13.30;99.90;;;;;;4126101;28;20088;-67
2023/10/29 00:13:46;;;;;;;3.30;1.42;;;13.30;99.90;;;;;;4125877;28;20125;-66
2023/10/29 00:15:47;;;;;;;2.50;1.13;;;13.40;99.90;;;;;;4126301;28;20053;-66
2023/10/29 00:17:48;;;;;;;4.03;1.30;;;13.40;99.90;;;;;;4126237;28;20097;-66
2023/10/29 00:19:50;;;;;;;4.00;1.52;;;13.30;99.90;;;;;;4126111;28;20034;-66
2023/10/29 00:21:51;;;;;;;1.45;1.10;;;13.40;99.90;;;;;;4109153;28;20549;-66
2023/10/29 00:23:51;;;;;;;5.25;1.25;;;13.30;99.90;;;;;;4126084;28;20109;-66
2023/10/29 00:25:52;;;;;;;4.82;1.33;;;13.40;99.90;;;;;;4126379;28;20046;-66
2023/10/29 00:27:52;;;;;;;2.50;0.98;;;13.40;99.90;;;;;;4107620;28;20154;-66
2023/10/29 00:29:53;;;;;;;3.13;1.02;;;13.40;99.90;;;;;;4125311;28;20084;-66
2023/10/29 00:31:54;;;;;;;1.00;0.80;;;13.50;99.90;;;;;;4142197;28;20053;-66
2023/10/29 00:33:54;;;;;;;2.80;1.15;;;13.50;99.90;;;;;;4143835;28;20372;-66
2023/10/29 00:35:56;;;;;;;3.38;1.10;;;13.50;99.90;;;;;;4142081;28;20124;-66
2023/10/29 00:37:57;;;;;;;1.95;1.20;;;13.50;99.90;;;;;;4140362;28;20088;-66
2023/10/29 00:39:57;;;;;;;2.42;1.30;;;13.50;99.90;;;;;;4137295;28;20129;-66
2023/10/29 00:41:58;;;;;;;2.58;1.20;;;13.50;99.90;;;;;;4142158;28;20037;-66
2023/10/29 00:43:58;;;;;;;2.42;1.10;;;13.50;99.90;;;;;;4143554;28;20034;-66
2023/10/29 00:45:59;;;;;;;1.27;0.82;;;13.50;99.90;;;;;;4140691;28;20444;-66
2023/10/29 00:48:00;;;;;;;2.63;1.00;;;13.50;99.90;;;;;;4146093;28;20057;-66
2023/10/29 00:50:00;;;;;;;2.28;1.00;;;13.60;99.90;;;;;;4138822;28;20502;-66
2023/10/29 00:52:02;;;;;;;1.50;0.95;;;13.60;99.90;;;;;;4146771;28;20098;-66
2023/10/29 00:54:04;;;;;;;3.75;1.20;;;13.60;99.90;;;;;;4136273;28;20037;-73
2023/10/29 00:56:05;;;;;;;3.30;1.58;;;13.60;99.90;;;;;;4141746;28;20041;-73
2023/10/29 00:58:06;;;;;;;2.67;1.20;;;13.60;99.90;;;;;;4143934;28;20046;-73
2023/10/29 01:00:07;;;;;;;2.63;1.10;;;13.60;99.90;;;;;;4143444;28;20474;-73
2023/10/29 01:02:08;;;;;;;2.13;1.08;;;13.60;99.90;;;;;;4142610;28;20165;-73
2023/10/29 01:04:09;;;;;;;1.88;0.85;;;13.60;99.90;;;;;;4140544;28;20034;-72
2023/10/29 01:06:11;;;;;;;2.58;0.80;;;13.60;99.90;;;;;;4141454;28;20414;-73
2023/10/29 01:08:11;;;;;;;5.47;1.00;;;13.60;99.90;;;;;;4142958;28;20667;-73
2023/10/29 01:10:12;;;;;;;2.85;0.82;;;13.60;99.90;;;;;;4143238;28;20056;-74
2023/10/29 01:12:17;;;;;;;2.38;0.80;;;13.60;99.90;;;;;;4134008;28;20136;-73
2023/10/29 01:14:17;;;;;;;1.83;0.77;;;13.60;99.90;;;;;;4142734;28;20061;-66
2023/10/29 01:16:18;;;;;;;2.30;1.10;;;13.60;99.90;;;;;;4141779;28;20034;-70
2023/10/29 01:18:18;;;;;;;2.58;1.17;;;13.60;99.90;;;;;;4141009;28;20108;-70
2023/10/29 01:20:19;;;;;;;3.08;1.13;;;13.60;99.90;;;;;;4137071;28;20034;-70
2023/10/29 01:22:20;;;;;;;1.60;1.10;;;13.60;99.90;;;;;;4147819;28;20049;-70
2023/10/29 01:24:20;;;;;;;1.15;0.82;;;13.60;99.90;;;;;;4137445;28;20113;-70
2023/10/29 01:26:21;;;;;;;4.18;1.00;;;13.60;99.90;;;;;;4139533;28;20076;-70
2023/10/29 01:28:21;;;;;;;1.33;0.63;;;13.60;99.90;;;;;;4134986;28;20033;-70
2023/10/29 01:30:22;;;;;;;2.78;0.90;;;13.60;99.90;;;;;;4126951;28;20042;-70
2023/10/29 01:32:23;;;;;;;1.92;0.95;;;13.60;99.90;;;;;;4123113;28;20042;-69
2023/10/29 01:34:24;;;;;;;4.00;0.95;;;13.70;99.90;;;;;;4125019;28;20093;-70
2023/10/29 01:36:24;;;;;;;3.35;0.93;;;13.70;99.90;;;;;;4117141;28;20038;-70
2023/10/29 01:38:25;;;;;;;4.65;1.35;;;13.70;99.90;;;;;;4124662;28;20038;-70
2023/10/29 01:40:25;;;;;;;1.95;1.10;;;13.70;99.90;;;;;;4124818;28;20066;-70
2023/10/29 01:42:26;;;;;;;5.28;1.20;;;13.70;99.90;;;;;;4121010;28;20038;-70
2023/10/29 01:44:27;;;;;;;2.75;1.20;;;13.70;99.90;;;;;;4126131;28;20387;-70
2023/10/29 01:46:27;;;;;;;1.75;1.05;;;13.70;99.90;;;;;;4123436;28;20047;-70
2023/10/29 01:48:28;;;;;;;4.43;1.00;;;13.70;99.90;;;;;;4125248;28;20125;-70
2023/10/29 01:50:29;;;;;;;1.70;0.80;;;13.70;99.90;;;;;;4124528;28;20414;-70
2023/10/29 01:52:29;;;;;;;2.45;0.95;;;13.70;99.90;;;;;;4119747;28;20042;-70
2023/10/29 01:54:30;;;;;;;2.50;1.20;;;13.70;99.90;;;;;;4125321;28;20129;-71
2023/10/29 01:56:30;;;;;;;2.22;1.17;;;13.70;99.90;;;;;;4108523;28;20551;-71
2023/10/29 01:58:31;;;;;;;2.00;0.80;;;13.80;99.90;;;;;;4124876;28;20042;-71
2023/10/29 02:00:32;;;;;;;3.65;1.17;;;13.80;99.90;;;;;;4116911;28;20038;-72
2023/10/29 02:02:33;;;;;;;1.40;0.88;;;13.80;99.90;;;;;;4126070;28;20058;-72
2023/10/29 02:04:33;;;;;;;2.72;1.15;;;13.80;99.90;;;;;;4126550;28;20034;-72
2023/10/29 02:06:38;;;;;;;2.28;0.82;;;13.80;99.90;;;;;;4124412;28;20076;-71
2023/10/29 02:08:39;;;;;;;2.40;1.08;;;13.80;99.90;;;;;;4123893;28;20058;-71
2023/10/29 02:10:40;;;;;;;2.90;1.08;;;13.80;99.90;;;;;;4124840;28;20034;-71
2023/10/29 02:12:40;;;;;;;2.92;1.15;;;13.90;99.90;;;;;;4107448;28;20114;-71
2023/10/29 02:14:41;;;;;;;5.03;1.13;;;13.80;99.90;;;;;;4124870;28;20042;-71
2023/10/29 02:16:42;;;;;;;4.18;1.33;;;13.80;99.90;;;;;;4124420;28;20042;-72
2023/10/29 02:18:42;;;;;;;1.77;1.00;;;13.80;99.90;;;;;;4106716;28;20043;-71
2023/10/29 02:20:43;;;;;;;1.95;0.90;;;13.80;99.90;;;;;;4124797;28;20034;-72
2023/10/29 02:22:44;;;;;;;2.58;1.00;;;13.90;99.90;;;;;;4108638;28;20039;-72
2023/10/29 02:24:44;;;;;;;2.17;1.10;;;13.80;99.90;;;;;;4124891;28;20038;-71
2023/10/29 02:26:45;;;;;;;3.67;1.23;;;13.80;99.90;;;;;;4124161;28;20042;-72
2023/10/29 02:28:45;;;;;;;2.22;1.05;;;13.80;99.90;;;;;;4124523;28;20038;-71
2023/10/29 02:30:47;;;;;;;1.88;0.98;;;13.80;99.90;;;;;;4122281;28;21087;-72
2023/10/29 02:32:47;;;;;;;1.88;0.90;;;13.80;99.90;;;;;;4120411;28;20385;-72
2023/10/29 02:34:48;;;;;;;2.30;0.90;;;13.80;99.90;;;;;;4125511;28;20054;-72
2023/10/29 02:36:48;;;;;;;2.08;1.02;;;13.80;99.90;;;;;;4106927;28;21475;-72
2023/10/29 02:38:49;;;;;;;2.75;0.93;;;13.80;99.90;;;;;;4124091;28;20116;-72
2023/10/29 02:40:49;;;;;;;4.65;1.38;;;13.80;99.90;;;;;;4119617;28;20112;-71
2023/10/29 02:42:50;;;;;;;2.75;1.00;;;13.80;99.90;;;;;;4128368;28;20039;-72
2023/10/29 02:44:52;;;;;;;3.75;0.90;;;13.80;99.90;;;;;;4128901;28;20038;-72
2023/10/29 02:46:53;;;;;;;4.07;1.02;;;13.80;99.90;;;;;;4109547;28;20133;-72
2023/10/29 02:48:53;;;;;;;5.80;1.30;;;13.90;99.90;;;;;;4127615;28;20466;-72
2023/10/29 02:50:54;;;;;;;2.30;1.08;;;13.90;99.90;;;;;;4127289;28;20065;-72
2023/10/29 02:52:54;;;;;;;1.55;0.85;;;13.90;99.90;;;;;;4128396;28;20037;-72
2023/10/29 02:54:56;;;;;;;2.45;1.02;;;13.90;99.90;;;;;;4127847;28;20039;-72
2023/10/29 02:56:56;;;;;;;3.13;1.10;;;13.90;99.90;;;;;;4126376;28;20054;-72
2023/10/29 02:58:57;;;;;;;4.72;1.10;;;13.90;99.90;;;;;;4127647;28;20034;-71
2023/10/29 03:01:09;;;;;;;2.08;0.73;;;13.90;99.90;;;;;;4127290;28;20034;-72
2023/10/29 03:03:09;;;;;;;1.80;0.68;;;14.00;99.90;;;;;;4128295;28;20034;-72
2023/10/29 03:05:11;;;;;;;2.28;1.00;;;13.90;99.90;;;;;;4127605;28;20117;-72
2023/10/29 03:07:12;;;;;;;2.70;0.93;;;14.00;99.90;;;;;;4127554;28;20050;-71
2023/10/29 03:09:13;;;;;;;2.08;0.80;;;14.00;99.90;;;;;;4127433;28;20038;-72
2023/10/29 03:11:14;;;;;;;1.48;0.85;;;14.00;99.90;;;;;;4125653;28;20158;-72
2023/10/29 03:13:14;;;;;;;2.05;0.77;;;14.00;99.90;;;;;;4128239;28;20030;-71
2023/10/29 03:15:15;;;;;;;3.70;1.00;;;14.00;99.90;;;;;;4126951;28;20065;-72
2023/10/29 03:17:16;;;;;;;4.90;1.00;;;14.00;99.90;;;;;;4127299;28;20130;-71
2023/10/29 03:19:16;;;;;;;1.85;0.75;;;14.00;99.90;;;;;;4127224;28;20042;-71
2023/10/29 03:21:17;;;;;;;1.38;0.93;;;14.00;99.90;;;;;;4127125;28;20514;-72
2023/10/29 03:23:18;;;;;;;0.57;0.57;;;14.00;99.90;;;;;;4127560;28;20487;-71
2023/10/29 03:25:19;;;;;;;2.25;1.05;;;14.00;99.90;;;;;;4125769;28;20038;-72
2023/10/29 03:27:19;;;;;;;3.88;1.00;;;14.00;99.90;;;;;;4127241;28;20039;-72
2023/10/29 03:29:20;;;;;;;0.98;0.55;;;14.00;99.90;;;;;;4127065;28;20056;-71
2023/10/29 03:31:20;;;;;;;1.63;0.80;;;14.00;99.90;;;;;;4126712;28;20478;-71
2023/10/29 03:33:21;;;;;;;2.25;1.00;;;14.00;99.90;;;;;;4127839;28;20030;-72
2023/10/29 03:35:25;;;;;;;1.50;0.73;;;14.00;99.90;;;;;;4126700;28;20034;-66
2023/10/29 03:37:25;;;;;;;2.88;0.93;;;14.00;99.90;;;;;;4127932;28;20061;-66
2023/10/29 03:39:26;;;;;;;1.77;0.60;;;14.00;99.90;;;;;;4126744;28;20062;-66
2023/10/29 03:41:26;;;;;;;1.77;0.90;;;14.00;99.90;;;;;;4126536;28;20064;-66
2023/10/29 03:43:27;;;;;;;2.85;0.98;;;14.00;99.90;;;;;;4110320;28;20035;-66
2023/10/29 03:45:28;;;;;;;1.65;0.73;;;14.00;99.90;;;;;;4129728;28;20156;-66
2023/10/29 03:47:28;;;;;;;1.55;0.70;;;14.00;99.90;;;;;;4134474;28;20483;-66
2023/10/29 03:49:29;;;;;;;4.15;1.10;;;14.00;99.90;;;;;;4113055;28;20129;-66
2023/10/29 03:51:30;;;;;;;1.80;0.80;;;14.00;99.90;;;;;;4125420;28;20492;-66
2023/10/29 03:53:30;;;;;;;3.78;0.70;;;14.00;99.90;;;;;;4127510;28;20050;-66
2023/10/29 03:55:31;;;;;;;1.55;0.75;;;14.00;99.90;;;;;;4118436;28;20593;-66
2023/10/29 03:57:32;;;;;;;1.17;0.70;;;14.00;99.90;;;;;;4125354;28;20047;-66
2023/10/29 03:59:34;;;;;;;4.43;1.00;;;14.10;99.90;;;;;;4126075;28;20031;-66
2023/10/29 04:01:35;;;;;;;3.83;1.17;;;14.00;99.90;;;;;;4124861;28;20046;-66
2023/10/29 04:03:35;;;;;;;0.70;0.50;;;14.00;99.90;;;;;;4112512;28;20085;-66
2023/10/29 04:05:36;;;;;;;2.50;0.80;;;14.10;99.90;;;;;;4126313;28;20038;-66
2023/10/29 04:07:37;;;;;;;1.42;0.60;;;14.00;99.90;;;;;;4126330;28;20042;-67
2023/10/29 04:09:38;;;;;;;1.42;0.68;;;14.10;99.90;;;;;;4127172;28;20141;-66
2023/10/29 04:11:38;;;;;;;2.05;0.75;;;14.10;99.90;;;;;;4125311;28;20030;-66
2023/10/29 04:13:39;;;;;;;1.67;0.95;;;14.10;99.90;;;;;;4126996;28;20053;-66
2023/10/29 04:15:40;;;;;;;0.90;0.50;;;14.10;99.90;;;;;;4126135;28;20488;-66
2023/10/29 04:17:41;;;;;;;4.15;0.50;;;14.10;99.90;;;;;;4126158;28;20133;-66
2023/10/29 04:19:41;;;;;;;1.33;0.70;;;14.10;99.90;;;;;;4126090;28;20049;-66
2023/10/29 04:21:42;;;;;;;2.45;0.50;;;14.10;99.90;;;;;;4125437;28;20384;-66
2023/10/29 04:23:43;;;;;;;2.72;0.60;;;14.20;99.90;;;;;;4126432;28;20410;-66
2023/10/29 04:25:44;;;;;;;1.10;0.50;;;14.10;99.90;;;;;;4108565;28;20058;-66
2023/10/29 04:27:44;;;;;;;1.25;0.77;;;14.20;99.90;;;;;;4126066;28;20403;-66
2023/10/29 04:29:45;;;;;;;1.45;0.63;;;14.20;99.90;;;;;;4129471;28;20058;-66
2023/10/29 04:31:47;;;;;;;1.52;0.63;;;14.20;99.90;;;;;;4124663;28;20494;-68
2023/10/29 04:33:48;;;;;;;0.82;0.50;;;14.20;99.90;;;;;;4126456;28;20058;-66
2023/10/29 04:35:49;;;;;;;1.58;0.52;;;14.30;99.90;;;;;;4125723;28;20043;-66
2023/10/29 04:37:49;;;;;;;0.85;0.40;;;14.30;99.90;;;;;;4127036;28;20042;-66
2023/10/29 04:39:50;;;;;;;2.97;0.55;;;14.30;99.90;;;;;;4127954;28;20085;-66
2023/10/29 04:41:51;;;;;;;1.58;0.50;;;14.30;99.90;;;;;;4125324;28;20038;-66
2023/10/29 04:43:52;;;;;;;0.98;0.40;;;14.30;99.90;;;;;;4126738;28;20584;-66
2023/10/29 04:45:52;;;;;;;0.82;0.50;;;14.30;99.90;;;;;;4125969;28;20043;-74
2023/10/29 04:47:53;;;;;;;1.55;0.57;;;14.30;99.90;;;;;;4131450;28;20080;-74
2023/10/29 04:49:53;;;;;;;0.70;0.50;;;14.30;99.90;;;;;;4112684;28;20053;-74
2023/10/29 04:51:54;;;;;;;2.67;0.60;;;14.40;99.90;;;;;;4125162;28;20049;-74
2023/10/29 04:53:54;;;;;;;2.47;0.43;;;14.40;99.90;;;;;;4126504;28;20543;-74
2023/10/29 04:55:55;;;;;;;0.85;0.70;;;14.40;99.90;;;;;;4124834;28;20034;-75
2023/10/29 04:57:57;;;;;;;1.30;0.40;;;14.40;99.90;;;;;;4126208;28;20511;-75
2023/10/29 04:59:57;;;;;;;1.77;0.70;;;14.40;99.90;;;;;;4125681;28;20046;-74
2023/10/29 05:01:58;;;;;;;2.13;0.80;;;14.40;99.90;;;;;;4122571;28;20029;-74
2023/10/29 05:03:58;;;;;;;2.97;0.73;;;14.40;99.90;;;;;;4118491;28;20035;-75
2023/10/29 05:05:59;;;;;;;0.85;0.50;;;14.50;99.90;;;;;;4125799;28;20073;-75
2023/10/29 05:07:59;;;;;;;4.13;0.80;;;14.50;99.90;;;;;;4129566;28;20184;-75
2023/10/29 05:10:00;;;;;;;2.85;0.70;;;14.50;99.90;;;;;;4112779;28;20038;-75
2023/10/29 05:12:02;;;;;;;4.85;0.90;;;14.50;99.90;;;;;;4120798;28;20121;-75
2023/10/29 05:14:02;;;;;;;2.40;0.60;;;14.50;99.90;;;;;;4125424;28;20105;-76
2023/10/29 05:16:04;;;;;;;2.22;0.50;;;14.50;99.90;;;;;;4129975;28;20122;-75
2023/10/29 05:18:05;;;;;;;3.42;0.73;;;14.60;99.90;;;;;;4109096;28;20074;-75
2023/10/29 05:20:09;;;;;;;2.38;0.80;;;14.60;99.90;;;;;;4126783;28;20391;-75
2023/10/29 05:22:09;;;;;;;3.03;0.68;;;14.60;99.90;;;;;;4122354;28;20034;-75
2023/10/29 05:24:10;;;;;;;3.45;0.82;;;14.60;99.90;;;;;;4128727;28;20406;-74
2023/10/29 05:26:11;;;;;;;3.50;0.65;;;14.60;99.90;;;;;;4127455;28;20038;-75
2023/10/29 05:28:12;;;;;;;1.27;0.60;;;14.70;99.90;;;;;;4130110;28;20525;-74
2023/10/29 05:30:12;;;;;;;2.90;0.85;;;14.70;99.90;;;;;;4131393;28;20403;-75
2023/10/29 05:32:13;;;;;;;2.15;0.73;;;14.70;99.90;;;;;;4131387;28;20058;-76
2023/10/29 05:34:14;;;;;;;2.03;0.80;;;14.70;99.90;;;;;;4131450;28;20053;-75
2023/10/29 05:36:15;;;;;;;1.30;0.63;;;14.70;99.90;;;;;;4124219;28;21579;-76
2023/10/29 05:38:15;;;;;;;0.50;0.50;;;14.70;99.90;;;;;;4122301;28;20046;-75
2023/10/29 05:40:16;;;;;;;2.95;0.80;;;14.70;99.90;;;;;;4123271;28;20042;-76
2023/10/29 05:42:16;;;;;;;1.60;0.73;;;14.70;99.90;;;;;;4125570;28;20117;-74
2023/10/29 05:44:17;;;;;;;1.02;0.50;;;14.70;99.90;;;;;;4125761;28;20039;-75
2023/10/29 05:46:18;;;;;;;1.92;0.60;;;14.70;99.90;;;;;;4123886;28;20590;-77
2023/10/29 05:48:18;;;;;;;1.38;0.60;;;14.70;99.90;;;;;;4123867;28;20030;-76
2023/10/29 05:50:19;;;;;;;2.17;0.40;;;14.70;99.90;;;;;;4123519;28;20543;-77
2023/10/29 05:52:20;;;;;;;5.55;1.00;;;14.70;99.90;;;;;;4124608;28;20117;-77
2023/10/29 05:54:21;;;;;;;1.40;0.60;;;14.70;99.90;;;;;;4125131;28;20049;-71
2023/10/29 05:56:21;;;;;;;1.73;0.88;;;14.70;99.90;;;;;;4124150;28;20080;-72
2023/10/29 05:58:24;;;;;;;1.20;0.60;;;14.70;99.90;;;;;;4123375;28;20038;-72
2023/10/29 06:00:24;;;;;;;;;;;14.70;99.90;;;;;;4109271;28;20522;-72
2023/10/29 06:02:25;;;;;;;2.10;0.82;;;14.70;99.90;;;;;;4133080;28;19914;-71
2023/10/29 06:04:26;;;;;;;4.18;0.70;;;14.70;99.90;;;;;;4128274;28;20585;-72
2023/10/29 06:06:26;;;;;;;2.85;0.90;;;14.70;99.90;;;;;;4125550;28;20467;-73
2023/10/29 06:08:27;;;;;;;3.83;1.05;;;14.70;99.90;;;;;;4126891;28;20034;-72
2023/10/29 06:10:27;;;;;;;1.77;0.80;;;14.70;99.90;;;;;;4128935;28;20292;-73
2023/10/29 06:12:28;;;;;;;3.17;0.93;;;14.70;99.90;;;;;;4136943;28;20100;-73
2023/10/29 06:14:29;;;;;;;2.50;0.60;;;14.70;99.90;;;;;;4130363;28;20108;-72
2023/10/29 06:16:29;;;;;;;2.58;0.90;;;14.70;99.90;;;;;;4127457;28;20081;-72
2023/10/29 06:18:30;;;;;;;3.13;1.05;;;14.70;99.90;;;;;;4128807;28;20502;-72
2023/10/29 06:20:30;;;;;;;1.73;0.70;;;14.70;99.90;;;;;;4128021;28;20030;-72
2023/10/29 06:22:32;;;;;;;5.55;0.95;;;14.70;99.90;;;;;;4132075;28;20037;-72
2023/10/29 06:24:32;;;;;;;2.47;0.50;;;14.70;99.90;;;;;;4115970;28;20041;-71
2023/10/29 06:26:33;;;;;;;1.90;0.60;;;14.70;99.90;;;;;;4130069;28;20486;-72
2023/10/29 06:28:34;;;;;;;2.45;0.80;;;14.80;99.90;;;;;;4130270;28;20112;-72
2023/10/29 06:30:34;;;;;;;3.13;1.02;;;14.70;99.90;;;;;;4132299;28;20057;-71
2023/10/29 06:32:35;;;;;;;3.35;0.90;;;14.70;99.90;;;;;;4128493;28;20030;-72
2023/10/29 06:34:35;;;;;;;4.47;1.13;;;14.70;99.90;;;;;;4134952;28;20125;-72
2023/10/29 06:36:36;;;;;;;3.22;1.13;;;14.70;99.90;;;;;;4133403;28;20038;-72
2023/10/29 06:38:37;;;;;;;1.98;0.70;;;14.70;99.90;;;;;;4131792;28;20556;-72
2023/10/29 06:40:37;;;;;;;2.30;0.93;;;14.70;99.90;;;;;;4125551;28;20438;-72
2023/10/29 06:42:38;;;;;;;2.00;1.15;;;14.70;99.90;;;;;;4129793;28;20045;-72
2023/10/29 06:44:39;;;;;;;2.28;1.02;;;14.70;99.90;;;;;;4126633;28;20487;-71
2023/10/29 06:46:39;;;;;;;1.48;0.70;;;14.70;99.90;;;;;;4124420;28;20089;-72
2023/10/29 06:48:41;;;;;;;1.58;0.85;;;14.70;99.90;;;;;;4127413;28;20121;-72
2023/10/29 06:50:45;;;;;;;5.07;1.25;;;14.60;99.90;;;;;;4123505;28;20113;-72
2023/10/29 06:52:46;;;;;;;3.38;0.95;;;14.60;99.90;;;;;;4126781;28;20108;-72
2023/10/29 06:54:46;;;;;;;4.00;0.88;;;14.60;99.90;;;;;;4127651;28;20046;-72
2023/10/29 06:56:47;;;;;;;2.17;0.80;;;14.60;99.90;;;;;;4125460;28;20459;-71
2023/10/29 06:58:48;;;;;;;2.92;1.00;;;14.60;99.90;;;;;;4126553;28;20073;-72
2023/10/29 07:00:49;;;;;;;0.93;0.50;;;14.60;99.90;;;;;;4123975;28;20042;-71
2023/10/29 07:02:50;;;;;;;2.88;0.93;;;14.60;99.90;;;;;;4127145;28;20130;-71
2023/10/29 07:04:50;;;;;;;4.75;0.90;;;14.60;99.90;;;;;;4125629;28;20034;-68
2023/10/29 07:06:51;;;;;;;5.03;1.45;;;14.60;99.90;;;;;;4123963;28;20050;-68
2023/10/29 07:08:52;;;;;;;3.90;0.90;;;14.60;99.90;;;;;;4124158;28;20096;-68
2023/10/29 07:10:56;;;;;;;4.78;0.80;;;14.60;99.90;;;;;;4126823;28;20423;-68
2023/10/29 07:12:57;;;;;;;4.78;1.40;;;14.50;99.90;;;;;;4127606;28;20027;-68
2023/10/29 07:14:58;;;;;;;3.67;1.08;;;14.60;99.90;;;;;;4127571;28;20039;-72
2023/10/29 07:16:59;;;;;;;4.18;1.08;;;14.50;99.90;;;;;;4121144;28;20070;-72
2023/10/29 07:18:59;;;;;;;3.92;0.93;;;14.50;99.90;;;;;;4130301;28;20125;-73
2023/10/29 07:21:00;;;;;;;5.45;1.23;;;14.50;99.90;;;;;;4120746;28;20061;-72
2023/10/29 07:23:00;;;;;;;3.72;1.27;;;14.50;99.90;;;;;;4124618;28;20031;-72
2023/10/29 07:25:01;;;;;;;2.72;0.80;;;14.50;99.90;;;;;;4116056;28;20030;-68
2023/10/29 07:27:02;;;;;;;3.30;1.02;;;14.50;99.90;;;;;;4122727;28;20050;-72
2023/10/29 07:29:03;;;;;;;7.15;1.85;;;14.50;99.90;;;;;;4124841;28;20046;-72
2023/10/29 07:31:04;;;;;;;2.40;0.93;;;14.50;99.90;;;;;;4121631;28;20106;-71
2023/10/29 07:33:05;;;;;;;4.93;1.27;;;14.50;99.90;;;;;;4108968;28;20035;-71
2023/10/29 07:35:06;;;;;;;3.50;1.30;;;14.50;99.90;;;;;;4125199;28;20042;-72
2023/10/29 07:37:06;;;;;;;4.15;0.98;;;14.60;99.90;;;;;;4126047;28;20023;-71
2023/10/29 07:39:07;;;;;;;4.25;1.10;;;14.60;99.90;;;;;;4126136;28;20081;-72
2023/10/29 07:41:07;;;;;;;5.72;1.33;;;14.60;99.90;;;;;;4108990;28;20149;-72
2023/10/29 07:43:09;;;;;;;4.03;1.20;;;14.70;99.90;;;;;;4126738;28;20043;-71
2023/10/29 07:45:10;;;;;;;2.85;0.95;;;14.90;99.90;;;;;;4125745;28;20385;-72
2023/10/29 07:47:11;;;;;;;2.42;0.93;;;15.30;99.90;;;;;;4126188;28;20054;-72
2023/10/29 07:49:11;;;;;;;3.55;1.00;;;15.70;99.90;;;;;;4108800;28;20072;-72
2023/10/29 07:51:13;;;;;;;2.70;0.70;;;16.00;99.90;;;;;;4122767;28;20041;-71
2023/10/29 07:53:13;;;;;;;1.88;0.80;;;16.30;99.90;;;;;;4125988;28;20443;-71
2023/10/29 07:55:14;;;;;;;3.17;1.20;;;16.60;99.90;;;;;;4126741;28;20039;-72
2023/10/29 07:57:15;;;;;;;3.95;0.98;;;16.80;99.90;;;;;;4107194;28;20058;-72
2023/10/29 07:59:15;;;;;;;6.03;1.15;;;17.10;99.90;;;;;;4129092;28;20034;-71
2023/10/29 08:01:17;;;;;;;3.25;0.70;;;17.30;99.90;;;;;;4127469;28;20066;-72
2023/10/29 08:03:17;;;;;;;2.17;0.82;;;17.50;99.90;;;;;;4127338;28;20369;-71
2023/10/29 08:05:18;;;;;;;2.55;1.10;;;17.40;99.90;;;;;;4121275;28;20073;-72
2023/10/29 08:07:20;;;;;;;2.50;0.98;;;17.20;99.90;;;;;;4128884;28;20057;-72
2023/10/29 08:09:21;;;;;;;3.72;0.95;;;16.90;99.90;;;;;;4104965;28;20031;-71
2023/10/29 08:11:22;;;;;;;3.37;1.23;;;16.80;99.90;;;;;;4124839;28;20475;-72
2023/10/29 08:13:23;;;;;;;2.72;0.85;;;16.60;99.90;;;;;;4124642;28;20269;-72
2023/10/29 08:15:23;;;;;;;2.15;0.90;;;16.50;99.90;;;;;;4123843;28;20030;-72
2023/10/29 08:17:25;;;;;;;3.55;0.90;;;16.30;99.90;;;;;;4110442;28;20415;-71
2023/10/29 08:19:27;;;;;;;3.22;0.90;;;16.20;99.90;;;;;;4127399;28;20026;-72
2023/10/29 08:21:27;;;;;;;5.35;1.20;;;16.10;99.90;;;;;;4126284;28;20049;-71
2023/10/29 08:23:29;;;;;;;2.42;0.98;;;16.10;99.90;;;;;;4125116;28;20671;-72
2023/10/29 08:25:30;;;;;;;2.38;1.00;;;16.10;99.90;;;;;;4109782;28;20054;-72
2023/10/29 08:27:30;;;;;;;4.82;1.20;;;16.10;99.90;;;;;;4125080;28;20097;-72
2023/10/29 08:29:31;;;;;;;2.55;0.93;;;16.10;99.90;;;;;;4117480;28;20054;-72
2023/10/29 08:31:32;;;;;;;4.13;0.95;;;16.00;99.90;;;;;;4140155;28;20134;-72
2023/10/29 08:33:32;;;;;;;0.88;0.70;;;16.00;99.90;;;;;;4142481;28;20045;-71
2023/10/29 08:35:33;;;;;;;3.42;0.95;;;16.00;99.90;;;;;;4142873;28;20482;-77
2023/10/29 08:37:34;;;;;;;3.38;0.90;;;15.90;99.90;;;;;;4142885;28;20037;-77
2023/10/29 08:39:36;;;;;;;1.95;0.60;;;15.90;99.90;;;;;;4145638;28;20041;-75
2023/10/29 08:41:36;;;;;;;3.65;1.13;;;15.90;99.90;;;;;;4135420;28;20053;-78
2023/10/29 08:43:37;;;;;;;4.40;1.27;;;15.70;99.90;;;;;;4143099;28;20021;-78
2023/10/29 08:45:37;;;;;;;3.50;1.05;;;15.70;99.90;;;;;;4140850;28;20039;-78
2023/10/29 08:47:38;;;;;;;3.50;1.10;;;15.70;99.90;;;;;;4144273;28;20112;-75
2023/10/29 08:49:39;;;;;;;2.65;0.85;;;15.60;99.90;;;;;;4139499;28;20049;-77
2023/10/29 08:51:40;;;;;;;3.05;1.02;;;15.60;99.90;;;;;;4138679;28;20061;-77
2023/10/29 08:53:41;;;;;;;5.75;1.33;;;15.50;99.90;;;;;;4143529;28;20030;-78
2023/10/29 08:55:41;;;;;;;2.92;1.00;;;15.40;99.90;;;;;;4143000;28;20087;-74
2023/10/29 08:57:43;;;;;;;4.13;1.20;;;15.40;99.90;;;;;;4143878;28;20042;-75
2023/10/29 08:59:43;;;;;;;2.33;0.82;;;15.30;99.90;;;;;;4144659;28;20046;-76
2023/10/29 09:01:44;;;;;;;1.95;0.70;;;15.20;99.90;;;;;;4139970;28;20048;-79
2023/10/29 09:03:44;;;;;;;3.15;1.00;;;15.20;99.90;;;;;;4141122;28;20045;-75
2023/10/29 09:05:46;;;;;;;5.05;1.10;;;15.20;99.90;;;;;;4140752;28;20072;-77
2023/10/29 09:07:47;;;;;;;3.10;0.90;;;15.20;99.90;;;;;;4140435;28;20094;-77
2023/10/29 09:09:48;;;;;;;3.88;1.15;;;15.10;99.90;;;;;;4145047;28;20513;-77
2023/10/29 09:11:53;;;;;;;4.47;1.45;;;15.00;99.90;;;;;;4139695;28;20034;-71
2023/10/29 09:13:53;;;;;;;4.47;1.60;;;15.00;99.90;;;;;;4137006;28;20728;-76
2023/10/29 09:15:54;;;;;;;4.45;0.98;;;15.00;99.90;;;;;;4139682;28;20037;-76
2023/10/29 09:17:55;;;;;;;3.33;1.00;;;15.00;99.90;;;;;;4141671;28;20045;-78
2023/10/29 09:19:56;;;;;;;3.88;1.13;;;15.00;99.90;;;;;;4142603;28;20478;-78
2023/10/29 09:21:57;;;;;;;3.97;0.93;;;15.00;99.90;;;;;;4140175;28;20030;-76
2023/10/29 09:23:57;;;;;;;2.80;0.73;;;15.00;99.90;;;;;;4140640;28;20037;-78
2023/10/29 09:25:59;;;;;;;4.63;1.02;;;15.10;99.90;;;;;;4138367;28;20041;-77
2023/10/29 09:28:00;;;;;;;2.37;1.03;;;15.20;99.90;;;;;;4140682;28;20038;-76
2023/10/29 09:30:01;;;;;;;3.22;1.02;;;15.20;99.90;;;;;;4139227;28;20049;-78
2023/10/29 09:32:04;;;;;;;3.55;1.48;;;15.30;99.90;;;;;;4142173;28;20404;-75
2023/10/29 09:34:05;;;;;;;7.10;1.40;;;15.30;99.90;;;;;;4140653;28;20395;-76
2023/10/29 09:36:06;;;;;;;2.85;0.82;;;15.40;99.90;;;;;;4135754;28;20035;-76
2023/10/29 09:38:06;;;;;;;6.35;1.17;;;15.40;99.90;;;;;;4142878;28;20096;-75
2023/10/29 09:40:13;;;;;;;5.82;1.25;;;15.40;99.90;;;;;;4148025;28;20632;-75
2023/10/29 09:42:18;;;;;;;4.60;1.40;;;15.40;99.90;;;;;;4136307;28;20441;-75
2023/10/29 09:44:20;;;;;;;4.85;1.50;;;15.40;99.90;;;;;;4151744;28;20033;-72
2023/10/29 09:46:21;;;;;;;4.75;1.23;;;15.40;99.90;;;;;;4143771;28;20116;-76
2023/10/29 09:48:23;;;;;;;3.20;1.15;;;15.30;99.90;;;;;;4143307;28;20046;-77
2023/10/29 09:50:24;;;;;;;3.33;1.00;;;15.30;99.90;;;;;;4144934;28;20687;-78
2023/10/29 09:52:30;;;;;;;4.75;1.20;;;15.40;99.90;;;;;;4146115;28;20034;-78
2023/10/29 09:54:30;;;;;;;4.25;1.08;;;15.30;99.90;;;;;;4143863;28;20034;-77
2023/10/29 09:56:33;;;;;;;3.03;1.00;;;15.40;99.90;;;;;;4150022;28;20041;-79
2023/10/29 09:58:35;;;;;;;4.03;1.35;;;15.30;99.90;;;;;;4147232;28;20041;-78
2023/10/29 10:00:36;;;;;;;3.15;1.00;;;15.30;99.90;;;;;;4142426;28;20026;-78
2023/10/29 10:02:53;;;;;;;3.90;0.98;;;15.30;99.90;;;;;;4143816;28;20045;-78
2023/10/29 10:04:55;;;;;;;3.83;1.25;;;15.40;99.90;;;;;;4142152;28;20042;-78
2023/10/29 10:06:58;;;;;;;4.40;1.23;;;15.50;99.90;;;;;;4143696;28;20045;-79
2023/10/29 10:08:58;;;;;;;4.13;1.42;;;15.50;99.90;;;;;;4145147;28;20038;-79
2023/10/29 10:10:59;;;;;;;2.63;1.02;;;15.60;99.90;;;;;;4143912;28;20056;-79
2023/10/29 10:13:01;;;;;;;6.10;0.90;;;15.60;99.90;;;;;;4146190;28;20132;-78
2023/10/29 10:15:05;;;;;;;3.97;1.13;;;15.60;99.90;;;;;;4142937;28;20482;-80
2023/10/29 10:17:10;;;;;;;2.63;1.10;;;15.70;99.90;;;;;;4146529;28;20075;-79
2023/10/29 10:19:13;;;;;;;9.95;0.88;;;15.70;99.90;;;;;;4145926;28;20030;-79
2023/10/29 10:21:15;;;;;;;6.25;1.25;;;15.80;99.90;;;;;;4140720;28;20041;-78
2023/10/29 10:23:15;;;;;;;2.90;1.20;;;15.80;99.90;;;;;;4146756;28;20495;-79
2023/10/29 10:25:20;;;;;;;1.98;0.90;;;15.90;99.90;;;;;;4142072;28;20034;-80
2023/10/29 10:27:20;;;;;;;4.30;1.20;;;16.00;99.90;;;;;;4143470;28;20534;-79
2023/10/29 10:29:33;;;;;;;3.50;1.00;;;16.00;99.90;;;;;;4139137;28;20087;-78
2023/10/29 10:31:35;;;;;;;0.95;0.70;;;16.00;99.90;;;;;;4127647;28;20035;-80